sensor_id;sensor_type;location;lat;lon;timestamp;P1;durP1;ratioP1;P2;durP2;ratioP2
75379;SDS011;65641;44.714;37.756;2022-12-07T00:00:12;2.83;;;2.40;;
75379;SDS011;65641;44.714;37.756;2022-12-07T00:01:26;2.67;;;2.42;;
75379;SDS011;65641;44.714;37.756;2022-12-07T00:02:30;3.08;;;2.15;;
75379;SDS011;65641;44.714;37.756;2022-12-07T00:03:34;3.30;;;3.00;;
75379;SDS011;65641;44.714;37.756;2022-12-07T00:04:39;2.42;;;2.22;;
75379;SDS011;65641;44.714;37.756;2022-12-07T00:05:42;3.20;;;2.03;;
75379;SDS011;65641;44.714;37.756;2022-12-07T00:06:51;2.97;;;2.38;;
75379;SDS011;65641;44.714;37.756;2022-12-07T00:07:55;2.40;;;2.08;;
75379;SDS011;65641;44.714;37.756;2022-12-07T00:08:59;2.78;;;2.33;;
75379;SDS011;65641;44.714;37.756;2022-12-07T00:10:02;3.03;;;2.38;;
75379;SDS011;65641;44.714;37.756;2022-12-07T00:11:06;2.72;;;1.40;;
75379;SDS011;65641;44.714;37.756;2022-12-07T00:12:11;3.00;;;2.10;;
75379;SDS011;65641;44.714;37.756;2022-12-07T00:13:14;2.70;;;2.45;;
75379;SDS011;65641;44.714;37.756;2022-12-07T00:14:18;2.60;;;1.75;;
75379;SDS011;65641;44.714;37.756;2022-12-07T00:15:23;2.95;;;2.72;;
75379;SDS011;65641;44.714;37.756;2022-12-07T00:16:37;4.00;;;2.22;;
75379;SDS011;65641;44.714;37.756;2022-12-07T00:17:45;2.70;;;2.35;;
75379;SDS011;65641;44.714;37.756;2022-12-07T00:18:48;3.13;;;2.63;;
75379;SDS011;65641;44.714;37.756;2022-12-07T00:20:00;3.03;;;2.17;;
75379;SDS011;65641;44.714;37.756;2022-12-07T00:21:34;2.60;;;1.98;;
75379;SDS011;65641;44.714;37.756;2022-12-07T00:23:03;3.70;;;2.75;;
75379;SDS011;65641;44.714;37.756;2022-12-07T00:24:10;3.15;;;2.28;;
75379;SDS011;65641;44.714;37.756;2022-12-07T00:25:49;2.85;;;2.42;;
75379;SDS011;65641;44.714;37.756;2022-12-07T00:26:56;2.85;;;2.45;;
75379;SDS011;65641;44.714;37.756;2022-12-07T00:29:22;2.75;;;2.42;;
75379;SDS011;65641;44.714;37.756;2022-12-07T00:32:01;2.97;;;2.38;;
75379;SDS011;65641;44.714;37.756;2022-12-07T00:33:05;3.58;;;2.78;;
75379;SDS011;65641;44.714;37.756;2022-12-07T00:34:16;2.80;;;2.33;;
75379;SDS011;65641;44.714;37.756;2022-12-07T00:35:21;3.70;;;3.40;;
75379;SDS011;65641;44.714;37.756;2022-12-07T00:36:24;4.45;;;2.47;;
75379;SDS011;65641;44.714;37.756;2022-12-07T00:37:28;2.80;;;2.58;;
75379;SDS011;65641;44.714;37.756;2022-12-07T00:38:32;3.15;;;2.75;;
75379;SDS011;65641;44.714;37.756;2022-12-07T00:39:36;3.05;;;2.78;;
75379;SDS011;65641;44.714;37.756;2022-12-07T00:40:39;3.80;;;2.63;;
75379;SDS011;65641;44.714;37.756;2022-12-07T00:41:42;3.38;;;2.20;;
75379;SDS011;65641;44.714;37.756;2022-12-07T00:42:45;3.00;;;2.70;;
75379;SDS011;65641;44.714;37.756;2022-12-07T00:43:49;2.85;;;2.53;;
75379;SDS011;65641;44.714;37.756;2022-12-07T00:44:53;3.00;;;2.30;;
75379;SDS011;65641;44.714;37.756;2022-12-07T00:45:56;2.78;;;2.42;;
75379;SDS011;65641;44.714;37.756;2022-12-07T00:46:59;3.60;;;3.30;;
75379;SDS011;65641;44.714;37.756;2022-12-07T00:48:02;2.40;;;1.92;;
75379;SDS011;65641;44.714;37.756;2022-12-07T00:49:06;2.40;;;2.17;;
75379;SDS011;65641;44.714;37.756;2022-12-07T00:50:09;3.20;;;2.30;;
75379;SDS011;65641;44.714;37.756;2022-12-07T00:51:13;3.10;;;2.78;;
75379;SDS011;65641;44.714;37.756;2022-12-07T00:52:17;2.55;;;2.10;;
75379;SDS011;65641;44.714;37.756;2022-12-07T00:53:20;2.20;;;1.95;;
75379;SDS011;65641;44.714;37.756;2022-12-07T00:54:24;2.80;;;2.13;;
75379;SDS011;65641;44.714;37.756;2022-12-07T00:55:27;2.88;;;2.58;;
75379;SDS011;65641;44.714;37.756;2022-12-07T00:56:32;3.20;;;2.72;;
75379;SDS011;65641;44.714;37.756;2022-12-07T00:57:34;2.78;;;2.38;;
75379;SDS011;65641;44.714;37.756;2022-12-07T00:58:37;2.75;;;2.20;;
75379;SDS011;65641;44.714;37.756;2022-12-07T00:59:40;3.53;;;2.78;;
75379;SDS011;65641;44.714;37.756;2022-12-07T01:00:44;2.40;;;1.95;;
75379;SDS011;65641;44.714;37.756;2022-12-07T01:01:47;2.45;;;2.20;;
75379;SDS011;65641;44.714;37.756;2022-12-07T01:02:51;2.75;;;2.20;;
75379;SDS011;65641;44.714;37.756;2022-12-07T01:03:54;2.88;;;2.20;;
75379;SDS011;65641;44.714;37.756;2022-12-07T01:04:58;2.35;;;2.15;;
75379;SDS011;65641;44.714;37.756;2022-12-07T01:06:22;3.17;;;2.88;;
75379;SDS011;65641;44.714;37.756;2022-12-07T01:07:26;2.78;;;2.15;;
75379;SDS011;65641;44.714;37.756;2022-12-07T01:08:31;3.25;;;2.25;;
75379;SDS011;65641;44.714;37.756;2022-12-07T01:09:35;2.33;;;2.00;;
75379;SDS011;65641;44.714;37.756;2022-12-07T01:10:38;1.63;;;1.10;;
75379;SDS011;65641;44.714;37.756;2022-12-07T01:11:41;2.92;;;2.40;;
75379;SDS011;65641;44.714;37.756;2022-12-07T01:12:44;3.35;;;2.35;;
75379;SDS011;65641;44.714;37.756;2022-12-07T01:13:49;2.70;;;2.13;;
75379;SDS011;65641;44.714;37.756;2022-12-07T01:14:55;2.25;;;1.98;;
75379;SDS011;65641;44.714;37.756;2022-12-07T01:16:01;3.03;;;1.83;;
75379;SDS011;65641;44.714;37.756;2022-12-07T01:17:07;2.75;;;0.80;;
75379;SDS011;65641;44.714;37.756;2022-12-07T01:18:11;2.63;;;2.42;;
75379;SDS011;65641;44.714;37.756;2022-12-07T01:19:14;2.80;;;2.60;;
75379;SDS011;65641;44.714;37.756;2022-12-07T01:20:17;2.42;;;2.20;;
75379;SDS011;65641;44.714;37.756;2022-12-07T01:21:22;2.30;;;1.98;;
75379;SDS011;65641;44.714;37.756;2022-12-07T01:22:30;3.67;;;2.38;;
75379;SDS011;65641;44.714;37.756;2022-12-07T01:23:34;2.40;;;2.20;;
75379;SDS011;65641;44.714;37.756;2022-12-07T01:24:37;2.38;;;2.10;;
75379;SDS011;65641;44.714;37.756;2022-12-07T01:25:40;3.33;;;2.28;;
75379;SDS011;65641;44.714;37.756;2022-12-07T01:26:43;2.38;;;2.03;;
75379;SDS011;65641;44.714;37.756;2022-12-07T01:27:46;2.28;;;1.90;;
75379;SDS011;65641;44.714;37.756;2022-12-07T01:28:49;2.42;;;2.17;;
75379;SDS011;65641;44.714;37.756;2022-12-07T01:29:53;2.55;;;2.08;;
75379;SDS011;65641;44.714;37.756;2022-12-07T01:31:00;2.83;;;2.45;;
75379;SDS011;65641;44.714;37.756;2022-12-07T01:32:10;2.45;;;2.13;;
75379;SDS011;65641;44.714;37.756;2022-12-07T01:33:13;2.38;;;1.75;;
75379;SDS011;65641;44.714;37.756;2022-12-07T01:34:16;2.42;;;2.22;;
75379;SDS011;65641;44.714;37.756;2022-12-07T01:35:19;1.88;;;1.65;;
75379;SDS011;65641;44.714;37.756;2022-12-07T01:37:25;2.90;;;2.22;;
75379;SDS011;65641;44.714;37.756;2022-12-07T01:38:29;2.58;;;2.10;;
75379;SDS011;65641;44.714;37.756;2022-12-07T01:39:33;1.98;;;1.05;;
75379;SDS011;65641;44.714;37.756;2022-12-07T01:40:36;2.70;;;2.28;;
75379;SDS011;65641;44.714;37.756;2022-12-07T01:41:39;2.45;;;1.88;;
75379;SDS011;65641;44.714;37.756;2022-12-07T01:42:45;2.38;;;2.15;;
75379;SDS011;65641;44.714;37.756;2022-12-07T01:45:40;2.90;;;2.30;;
75379;SDS011;65641;44.714;37.756;2022-12-07T01:46:45;2.50;;;2.20;;
75379;SDS011;65641;44.714;37.756;2022-12-07T01:47:51;2.85;;;1.90;;
75379;SDS011;65641;44.714;37.756;2022-12-07T01:48:57;2.20;;;2.00;;
75379;SDS011;65641;44.714;37.756;2022-12-07T01:50:02;2.63;;;2.40;;
75379;SDS011;65641;44.714;37.756;2022-12-07T01:51:15;2.92;;;1.90;;
75379;SDS011;65641;44.714;37.756;2022-12-07T01:52:23;2.30;;;2.05;;
75379;SDS011;65641;44.714;37.756;2022-12-07T01:53:31;3.10;;;2.63;;
75379;SDS011;65641;44.714;37.756;2022-12-07T01:54:39;3.55;;;3.25;;
75379;SDS011;65641;44.714;37.756;2022-12-07T01:55:42;2.38;;;2.17;;
75379;SDS011;65641;44.714;37.756;2022-12-07T01:56:51;2.40;;;2.20;;
75379;SDS011;65641;44.714;37.756;2022-12-07T01:57:57;2.03;;;1.83;;
75379;SDS011;65641;44.714;37.756;2022-12-07T01:59:02;2.33;;;1.90;;
75379;SDS011;65641;44.714;37.756;2022-12-07T02:00:06;2.83;;;2.60;;
75379;SDS011;65641;44.714;37.756;2022-12-07T02:01:14;2.58;;;2.38;;
75379;SDS011;65641;44.714;37.756;2022-12-07T02:02:25;2.10;;;1.88;;
75379;SDS011;65641;44.714;37.756;2022-12-07T02:03:40;2.72;;;2.50;;
75379;SDS011;65641;44.714;37.756;2022-12-07T02:04:45;2.72;;;2.25;;
75379;SDS011;65641;44.714;37.756;2022-12-07T02:05:49;2.55;;;2.17;;
75379;SDS011;65641;44.714;37.756;2022-12-07T02:06:53;2.55;;;2.25;;
75379;SDS011;65641;44.714;37.756;2022-12-07T02:07:57;2.30;;;2.10;;
75379;SDS011;65641;44.714;37.756;2022-12-07T02:09:02;2.42;;;2.15;;
75379;SDS011;65641;44.714;37.756;2022-12-07T02:10:12;2.67;;;1.77;;
75379;SDS011;65641;44.714;37.756;2022-12-07T02:11:19;3.00;;;1.88;;
75379;SDS011;65641;44.714;37.756;2022-12-07T02:12:23;3.33;;;2.55;;
75379;SDS011;65641;44.714;37.756;2022-12-07T02:13:47;2.13;;;1.83;;
75379;SDS011;65641;44.714;37.756;2022-12-07T02:14:51;1.85;;;1.63;;
75379;SDS011;65641;44.714;37.756;2022-12-07T02:18:20;2.20;;;1.88;;
75379;SDS011;65641;44.714;37.756;2022-12-07T02:19:29;2.20;;;1.98;;
75379;SDS011;65641;44.714;37.756;2022-12-07T02:27:47;2.20;;;1.98;;
75379;SDS011;65641;44.714;37.756;2022-12-07T02:29:16;1.90;;;1.70;;
75379;SDS011;65641;44.714;37.756;2022-12-07T02:30:25;3.03;;;2.70;;
75379;SDS011;65641;44.714;37.756;2022-12-07T02:31:33;3.42;;;1.95;;
75379;SDS011;65641;44.714;37.756;2022-12-07T02:34:44;3.20;;;2.83;;
75379;SDS011;65641;44.714;37.756;2022-12-07T02:35:35;3.78;;;2.35;;
75379;SDS011;65641;44.714;37.756;2022-12-07T02:36:55;2.50;;;1.98;;
75379;SDS011;65641;44.714;37.756;2022-12-07T02:38:04;2.53;;;2.33;;
75379;SDS011;65641;44.714;37.756;2022-12-07T02:39:23;2.33;;;2.13;;
75379;SDS011;65641;44.714;37.756;2022-12-07T02:40:40;3.10;;;2.38;;
75379;SDS011;65641;44.714;37.756;2022-12-07T02:41:55;2.53;;;2.33;;
75379;SDS011;65641;44.714;37.756;2022-12-07T02:43:06;2.88;;;1.67;;
75379;SDS011;65641;44.714;37.756;2022-12-07T02:44:31;2.65;;;1.73;;
75379;SDS011;65641;44.714;37.756;2022-12-07T02:45:36;3.47;;;2.53;;
75379;SDS011;65641;44.714;37.756;2022-12-07T02:46:43;2.58;;;2.38;;
75379;SDS011;65641;44.714;37.756;2022-12-07T02:48:54;2.33;;;2.13;;
75379;SDS011;65641;44.714;37.756;2022-12-07T02:49:58;2.60;;;2.25;;
75379;SDS011;65641;44.714;37.756;2022-12-07T02:51:01;2.65;;;1.83;;
75379;SDS011;65641;44.714;37.756;2022-12-07T02:52:04;2.47;;;0.90;;
75379;SDS011;65641;44.714;37.756;2022-12-07T02:53:27;2.67;;;2.47;;
75379;SDS011;65641;44.714;37.756;2022-12-07T02:54:33;3.17;;;1.70;;
75379;SDS011;65641;44.714;37.756;2022-12-07T02:55:37;2.33;;;2.13;;
75379;SDS011;65641;44.714;37.756;2022-12-07T02:59:07;3.15;;;2.85;;
75379;SDS011;65641;44.714;37.756;2022-12-07T03:00:23;3.00;;;2.00;;
75379;SDS011;65641;44.714;37.756;2022-12-07T03:02:42;2.25;;;2.05;;
75379;SDS011;65641;44.714;37.756;2022-12-07T03:04:02;2.90;;;2.63;;
75379;SDS011;65641;44.714;37.756;2022-12-07T03:07:26;2.15;;;1.15;;
75379;SDS011;65641;44.714;37.756;2022-12-07T03:09:35;2.88;;;2.58;;
75379;SDS011;65641;44.714;37.756;2022-12-07T03:11:07;2.60;;;2.40;;
75379;SDS011;65641;44.714;37.756;2022-12-07T03:12:17;2.45;;;2.28;;
75379;SDS011;65641;44.714;37.756;2022-12-07T03:15:10;3.55;;;1.98;;
75379;SDS011;65641;44.714;37.756;2022-12-07T03:16:23;2.47;;;2.25;;
75379;SDS011;65641;44.714;37.756;2022-12-07T03:17:28;2.28;;;2.08;;
75379;SDS011;65641;44.714;37.756;2022-12-07T03:18:36;3.25;;;2.67;;
75379;SDS011;65641;44.714;37.756;2022-12-07T03:19:42;2.60;;;2.30;;
75379;SDS011;65641;44.714;37.756;2022-12-07T03:20:47;2.60;;;2.20;;
75379;SDS011;65641;44.714;37.756;2022-12-07T03:21:55;2.35;;;2.15;;
75379;SDS011;65641;44.714;37.756;2022-12-07T03:23:03;2.92;;;2.50;;
75379;SDS011;65641;44.714;37.756;2022-12-07T03:25:04;2.22;;;2.03;;
75379;SDS011;65641;44.714;37.756;2022-12-07T03:26:01;2.30;;;1.92;;
75379;SDS011;65641;44.714;37.756;2022-12-07T03:27:14;2.53;;;1.90;;
75379;SDS011;65641;44.714;37.756;2022-12-07T03:28:24;2.08;;;1.85;;
75379;SDS011;65641;44.714;37.756;2022-12-07T03:29:36;2.60;;;2.38;;
75379;SDS011;65641;44.714;37.756;2022-12-07T03:30:46;2.17;;;1.67;;
75379;SDS011;65641;44.714;37.756;2022-12-07T03:31:55;2.63;;;1.77;;
75379;SDS011;65641;44.714;37.756;2022-12-07T03:33:07;2.15;;;1.95;;
75379;SDS011;65641;44.714;37.756;2022-12-07T03:34:16;2.35;;;2.10;;
75379;SDS011;65641;44.714;37.756;2022-12-07T03:35:29;2.53;;;1.85;;
75379;SDS011;65641;44.714;37.756;2022-12-07T03:37:41;2.75;;;2.55;;
75379;SDS011;65641;44.714;37.756;2022-12-07T03:38:50;1.85;;;0.70;;
75379;SDS011;65641;44.714;37.756;2022-12-07T03:40:13;2.35;;;1.65;;
75379;SDS011;65641;44.714;37.756;2022-12-07T03:41:23;2.50;;;2.15;;
75379;SDS011;65641;44.714;37.756;2022-12-07T03:42:29;2.53;;;2.33;;
75379;SDS011;65641;44.714;37.756;2022-12-07T03:43:34;2.60;;;2.00;;
75379;SDS011;65641;44.714;37.756;2022-12-07T03:44:39;2.20;;;1.92;;
75379;SDS011;65641;44.714;37.756;2022-12-07T03:45:45;2.65;;;2.45;;
75379;SDS011;65641;44.714;37.756;2022-12-07T03:47:03;2.00;;;1.73;;
75379;SDS011;65641;44.714;37.756;2022-12-07T03:48:16;2.53;;;2.05;;
75379;SDS011;65641;44.714;37.756;2022-12-07T03:51:13;2.40;;;2.15;;
75379;SDS011;65641;44.714;37.756;2022-12-07T03:55:05;2.15;;;1.70;;
75379;SDS011;65641;44.714;37.756;2022-12-07T03:57:13;2.25;;;2.05;;
75379;SDS011;65641;44.714;37.756;2022-12-07T03:58:27;2.35;;;2.15;;
75379;SDS011;65641;44.714;37.756;2022-12-07T03:59:33;2.17;;;1.98;;
75379;SDS011;65641;44.714;37.756;2022-12-07T04:00:36;1.95;;;1.75;;
75379;SDS011;65641;44.714;37.756;2022-12-07T04:01:43;2.30;;;1.95;;
75379;SDS011;65641;44.714;37.756;2022-12-07T04:02:47;2.08;;;1.75;;
75379;SDS011;65641;44.714;37.756;2022-12-07T04:03:54;2.40;;;1.92;;
75379;SDS011;65641;44.714;37.756;2022-12-07T04:04:57;2.30;;;2.08;;
75379;SDS011;65641;44.714;37.756;2022-12-07T04:06:00;2.08;;;1.88;;
75379;SDS011;65641;44.714;37.756;2022-12-07T04:07:03;2.15;;;1.95;;
75379;SDS011;65641;44.714;37.756;2022-12-07T04:08:06;2.33;;;2.13;;
75379;SDS011;65641;44.714;37.756;2022-12-07T04:09:10;2.65;;;1.98;;
75379;SDS011;65641;44.714;37.756;2022-12-07T04:10:22;2.50;;;2.13;;
75379;SDS011;65641;44.714;37.756;2022-12-07T04:11:25;2.83;;;1.77;;
75379;SDS011;65641;44.714;37.756;2022-12-07T04:12:28;2.13;;;1.92;;
75379;SDS011;65641;44.714;37.756;2022-12-07T04:13:31;2.85;;;2.20;;
75379;SDS011;65641;44.714;37.756;2022-12-07T04:14:54;2.80;;;2.05;;
75379;SDS011;65641;44.714;37.756;2022-12-07T04:15:58;2.70;;;2.03;;
75379;SDS011;65641;44.714;37.756;2022-12-07T04:17:01;3.08;;;2.72;;
75379;SDS011;65641;44.714;37.756;2022-12-07T04:18:05;3.28;;;2.03;;
75379;SDS011;65641;44.714;37.756;2022-12-07T04:19:09;2.38;;;1.90;;
75379;SDS011;65641;44.714;37.756;2022-12-07T04:20:12;2.28;;;2.08;;
75379;SDS011;65641;44.714;37.756;2022-12-07T04:21:15;2.40;;;2.15;;
75379;SDS011;65641;44.714;37.756;2022-12-07T04:22:18;3.38;;;2.58;;
75379;SDS011;65641;44.714;37.756;2022-12-07T04:23:21;3.33;;;2.42;;
75379;SDS011;65641;44.714;37.756;2022-12-07T04:24:24;4.35;;;2.53;;
75379;SDS011;65641;44.714;37.756;2022-12-07T04:25:30;4.65;;;2.65;;
75379;SDS011;65641;44.714;37.756;2022-12-07T04:26:33;3.83;;;2.35;;
75379;SDS011;65641;44.714;37.756;2022-12-07T04:27:36;3.13;;;2.70;;
75379;SDS011;65641;44.714;37.756;2022-12-07T04:28:39;3.65;;;2.53;;
75379;SDS011;65641;44.714;37.756;2022-12-07T04:29:48;3.75;;;2.83;;
75379;SDS011;65641;44.714;37.756;2022-12-07T04:30:51;4.47;;;2.03;;
75379;SDS011;65641;44.714;37.756;2022-12-07T04:31:54;4.35;;;2.70;;
75379;SDS011;65641;44.714;37.756;2022-12-07T04:33:00;4.82;;;2.53;;
75379;SDS011;65641;44.714;37.756;2022-12-07T04:34:03;5.35;;;3.00;;
75379;SDS011;65641;44.714;37.756;2022-12-07T04:35:09;3.72;;;2.13;;
75379;SDS011;65641;44.714;37.756;2022-12-07T04:36:12;3.30;;;2.75;;
75379;SDS011;65641;44.714;37.756;2022-12-07T04:37:15;4.43;;;2.30;;
75379;SDS011;65641;44.714;37.756;2022-12-07T04:38:19;5.50;;;2.63;;
75379;SDS011;65641;44.714;37.756;2022-12-07T04:39:23;5.97;;;2.67;;
75379;SDS011;65641;44.714;37.756;2022-12-07T04:40:29;5.05;;;2.03;;
75379;SDS011;65641;44.714;37.756;2022-12-07T04:41:32;4.15;;;3.35;;
75379;SDS011;65641;44.714;37.756;2022-12-07T04:42:35;4.68;;;3.03;;
75379;SDS011;65641;44.714;37.756;2022-12-07T04:43:38;4.82;;;2.88;;
75379;SDS011;65641;44.714;37.756;2022-12-07T04:44:41;4.93;;;2.13;;
75379;SDS011;65641;44.714;37.756;2022-12-07T04:45:58;4.90;;;2.92;;
75379;SDS011;65641;44.714;37.756;2022-12-07T04:47:01;5.93;;;3.03;;
75379;SDS011;65641;44.714;37.756;2022-12-07T04:48:05;4.93;;;3.47;;
75379;SDS011;65641;44.714;37.756;2022-12-07T04:49:08;4.70;;;2.42;;
75379;SDS011;65641;44.714;37.756;2022-12-07T04:50:11;4.22;;;2.90;;
75379;SDS011;65641;44.714;37.756;2022-12-07T04:51:16;3.63;;;2.38;;
75379;SDS011;65641;44.714;37.756;2022-12-07T04:52:22;5.22;;;2.97;;
75379;SDS011;65641;44.714;37.756;2022-12-07T04:53:25;4.68;;;2.55;;
75379;SDS011;65641;44.714;37.756;2022-12-07T04:54:28;5.32;;;3.30;;
75379;SDS011;65641;44.714;37.756;2022-12-07T04:55:31;6.38;;;2.75;;
75379;SDS011;65641;44.714;37.756;2022-12-07T04:56:34;5.53;;;2.58;;
75379;SDS011;65641;44.714;37.756;2022-12-07T04:57:38;4.60;;;2.67;;
75379;SDS011;65641;44.714;37.756;2022-12-07T04:58:41;4.75;;;3.38;;
75379;SDS011;65641;44.714;37.756;2022-12-07T04:59:45;5.75;;;2.40;;
75379;SDS011;65641;44.714;37.756;2022-12-07T05:00:48;6.03;;;3.00;;
75379;SDS011;65641;44.714;37.756;2022-12-07T05:01:52;5.40;;;2.58;;
75379;SDS011;65641;44.714;37.756;2022-12-07T05:02:55;5.38;;;3.20;;
75379;SDS011;65641;44.714;37.756;2022-12-07T05:03:58;5.75;;;2.83;;
75379;SDS011;65641;44.714;37.756;2022-12-07T05:05:01;7.18;;;2.92;;
75379;SDS011;65641;44.714;37.756;2022-12-07T05:06:04;6.15;;;3.50;;
75379;SDS011;65641;44.714;37.756;2022-12-07T05:07:14;6.43;;;2.75;;
75379;SDS011;65641;44.714;37.756;2022-12-07T05:08:17;5.85;;;2.67;;
75379;SDS011;65641;44.714;37.756;2022-12-07T05:09:20;5.68;;;3.05;;
75379;SDS011;65641;44.714;37.756;2022-12-07T05:10:23;5.15;;;3.03;;
75379;SDS011;65641;44.714;37.756;2022-12-07T05:11:26;5.28;;;3.05;;
75379;SDS011;65641;44.714;37.756;2022-12-07T05:12:41;5.38;;;2.88;;
75379;SDS011;65641;44.714;37.756;2022-12-07T05:13:44;6.13;;;3.25;;
75379;SDS011;65641;44.714;37.756;2022-12-07T05:14:47;7.25;;;3.50;;
75379;SDS011;65641;44.714;37.756;2022-12-07T05:15:50;8.23;;;3.83;;
75379;SDS011;65641;44.714;37.756;2022-12-07T05:16:54;4.78;;;3.10;;
75379;SDS011;65641;44.714;37.756;2022-12-07T05:17:57;5.72;;;3.40;;
75379;SDS011;65641;44.714;37.756;2022-12-07T05:19:00;5.15;;;3.08;;
75379;SDS011;65641;44.714;37.756;2022-12-07T05:20:03;6.15;;;4.10;;
75379;SDS011;65641;44.714;37.756;2022-12-07T05:21:07;6.90;;;3.28;;
75379;SDS011;65641;44.714;37.756;2022-12-07T05:22:10;6.10;;;3.83;;
75379;SDS011;65641;44.714;37.756;2022-12-07T05:23:13;5.50;;;3.20;;
75379;SDS011;65641;44.714;37.756;2022-12-07T05:24:16;3.97;;;2.88;;
75379;SDS011;65641;44.714;37.756;2022-12-07T05:25:19;6.50;;;3.08;;
75379;SDS011;65641;44.714;37.756;2022-12-07T05:26:22;6.78;;;3.13;;
75379;SDS011;65641;44.714;37.756;2022-12-07T05:27:27;4.15;;;3.33;;
75379;SDS011;65641;44.714;37.756;2022-12-07T05:28:30;4.13;;;3.60;;
75379;SDS011;65641;44.714;37.756;2022-12-07T05:29:33;5.95;;;3.13;;
75379;SDS011;65641;44.714;37.756;2022-12-07T05:30:36;4.95;;;2.88;;
75379;SDS011;65641;44.714;37.756;2022-12-07T05:31:39;3.95;;;2.55;;
75379;SDS011;65641;44.714;37.756;2022-12-07T05:32:42;6.60;;;3.60;;
75379;SDS011;65641;44.714;37.756;2022-12-07T05:33:45;5.05;;;2.90;;
75379;SDS011;65641;44.714;37.756;2022-12-07T05:34:48;4.43;;;2.97;;
75379;SDS011;65641;44.714;37.756;2022-12-07T05:35:51;6.47;;;3.40;;
75379;SDS011;65641;44.714;37.756;2022-12-07T05:36:54;4.75;;;3.08;;
75379;SDS011;65641;44.714;37.756;2022-12-07T05:37:57;8.13;;;3.35;;
75379;SDS011;65641;44.714;37.756;2022-12-07T05:39:00;3.65;;;2.65;;
75379;SDS011;65641;44.714;37.756;2022-12-07T05:40:04;8.55;;;3.55;;
75379;SDS011;65641;44.714;37.756;2022-12-07T05:41:09;5.85;;;3.28;;
75379;SDS011;65641;44.714;37.756;2022-12-07T05:42:36;4.78;;;1.77;;
75379;SDS011;65641;44.714;37.756;2022-12-07T05:43:39;5.35;;;3.17;;
75379;SDS011;65641;44.714;37.756;2022-12-07T05:44:43;4.65;;;2.13;;
75379;SDS011;65641;44.714;37.756;2022-12-07T05:45:47;5.20;;;1.77;;
75379;SDS011;65641;44.714;37.756;2022-12-07T05:46:50;6.35;;;2.95;;
75379;SDS011;65641;44.714;37.756;2022-12-07T05:47:53;6.03;;;3.30;;
75379;SDS011;65641;44.714;37.756;2022-12-07T05:48:56;5.38;;;3.33;;
75379;SDS011;65641;44.714;37.756;2022-12-07T05:49:59;5.00;;;3.53;;
75379;SDS011;65641;44.714;37.756;2022-12-07T05:51:02;5.88;;;2.95;;
75379;SDS011;65641;44.714;37.756;2022-12-07T05:52:05;6.20;;;3.70;;
75379;SDS011;65641;44.714;37.756;2022-12-07T05:53:09;5.97;;;2.97;;
75379;SDS011;65641;44.714;37.756;2022-12-07T05:54:12;6.50;;;2.85;;
75379;SDS011;65641;44.714;37.756;2022-12-07T05:55:14;6.30;;;3.47;;
75379;SDS011;65641;44.714;37.756;2022-12-07T05:56:18;5.25;;;3.17;;
75379;SDS011;65641;44.714;37.756;2022-12-07T05:57:21;5.05;;;3.05;;
75379;SDS011;65641;44.714;37.756;2022-12-07T05:58:23;7.47;;;3.47;;
75379;SDS011;65641;44.714;37.756;2022-12-07T05:59:45;4.28;;;3.38;;
75379;SDS011;65641;44.714;37.756;2022-12-07T06:00:48;5.35;;;2.58;;
75379;SDS011;65641;44.714;37.756;2022-12-07T06:01:53;4.07;;;2.85;;
75379;SDS011;65641;44.714;37.756;2022-12-07T06:03:01;5.60;;;2.75;;
75379;SDS011;65641;44.714;37.756;2022-12-07T06:04:04;3.90;;;3.15;;
75379;SDS011;65641;44.714;37.756;2022-12-07T06:05:07;5.78;;;2.90;;
75379;SDS011;65641;44.714;37.756;2022-12-07T06:06:10;5.13;;;3.38;;
75379;SDS011;65641;44.714;37.756;2022-12-07T06:07:14;6.38;;;2.72;;
75379;SDS011;65641;44.714;37.756;2022-12-07T06:08:18;4.85;;;2.85;;
75379;SDS011;65641;44.714;37.756;2022-12-07T06:09:21;4.68;;;3.05;;
75379;SDS011;65641;44.714;37.756;2022-12-07T06:10:25;5.65;;;2.75;;
75379;SDS011;65641;44.714;37.756;2022-12-07T06:11:28;5.10;;;2.65;;
75379;SDS011;65641;44.714;37.756;2022-12-07T06:12:50;5.55;;;3.55;;
75379;SDS011;65641;44.714;37.756;2022-12-07T06:13:53;6.85;;;3.15;;
75379;SDS011;65641;44.714;37.756;2022-12-07T06:14:56;5.63;;;2.90;;
75379;SDS011;65641;44.714;37.756;2022-12-07T06:15:59;5.00;;;2.72;;
75379;SDS011;65641;44.714;37.756;2022-12-07T06:17:02;5.93;;;3.33;;
75379;SDS011;65641;44.714;37.756;2022-12-07T06:18:05;5.28;;;3.20;;
75379;SDS011;65641;44.714;37.756;2022-12-07T06:19:08;5.57;;;2.60;;
75379;SDS011;65641;44.714;37.756;2022-12-07T06:20:12;5.72;;;2.92;;
75379;SDS011;65641;44.714;37.756;2022-12-07T06:21:15;3.97;;;2.65;;
75379;SDS011;65641;44.714;37.756;2022-12-07T06:22:18;6.43;;;2.80;;
75379;SDS011;65641;44.714;37.756;2022-12-07T06:23:21;4.53;;;2.75;;
75379;SDS011;65641;44.714;37.756;2022-12-07T06:24:24;8.52;;;3.30;;
75379;SDS011;65641;44.714;37.756;2022-12-07T06:25:27;4.03;;;3.00;;
75379;SDS011;65641;44.714;37.756;2022-12-07T06:26:30;7.50;;;1.92;;
75379;SDS011;65641;44.714;37.756;2022-12-07T06:27:34;4.72;;;2.63;;
75379;SDS011;65641;44.714;37.756;2022-12-07T06:28:37;4.60;;;2.50;;
75379;SDS011;65641;44.714;37.756;2022-12-07T06:29:40;5.68;;;3.08;;
75379;SDS011;65641;44.714;37.756;2022-12-07T06:30:43;5.03;;;3.38;;
75379;SDS011;65641;44.714;37.756;2022-12-07T06:31:46;5.72;;;3.08;;
75379;SDS011;65641;44.714;37.756;2022-12-07T06:32:49;5.13;;;1.52;;
75379;SDS011;65641;44.714;37.756;2022-12-07T06:33:56;5.07;;;2.83;;
75379;SDS011;65641;44.714;37.756;2022-12-07T06:35:03;6.38;;;3.22;;
75379;SDS011;65641;44.714;37.756;2022-12-07T06:36:07;3.97;;;2.38;;
75379;SDS011;65641;44.714;37.756;2022-12-07T06:37:11;6.43;;;3.08;;
75379;SDS011;65641;44.714;37.756;2022-12-07T06:38:13;4.05;;;2.97;;
75379;SDS011;65641;44.714;37.756;2022-12-07T06:39:17;6.07;;;2.92;;
75379;SDS011;65641;44.714;37.756;2022-12-07T06:40:21;5.82;;;3.78;;
75379;SDS011;65641;44.714;37.756;2022-12-07T06:41:24;5.47;;;2.78;;
75379;SDS011;65641;44.714;37.756;2022-12-07T06:42:27;5.45;;;2.67;;
75379;SDS011;65641;44.714;37.756;2022-12-07T06:43:30;5.75;;;2.92;;
75379;SDS011;65641;44.714;37.756;2022-12-07T06:44:33;6.03;;;2.50;;
75379;SDS011;65641;44.714;37.756;2022-12-07T06:45:36;4.35;;;2.97;;
75379;SDS011;65641;44.714;37.756;2022-12-07T06:46:39;4.85;;;2.88;;
75379;SDS011;65641;44.714;37.756;2022-12-07T06:47:42;5.05;;;2.47;;
75379;SDS011;65641;44.714;37.756;2022-12-07T06:48:47;4.82;;;1.73;;
75379;SDS011;65641;44.714;37.756;2022-12-07T06:49:50;4.80;;;2.75;;
75379;SDS011;65641;44.714;37.756;2022-12-07T06:50:53;3.92;;;2.80;;
75379;SDS011;65641;44.714;37.756;2022-12-07T06:51:56;5.88;;;2.95;;
75379;SDS011;65641;44.714;37.756;2022-12-07T06:52:59;5.10;;;3.50;;
75379;SDS011;65641;44.714;37.756;2022-12-07T06:54:03;4.38;;;2.72;;
75379;SDS011;65641;44.714;37.756;2022-12-07T06:55:06;4.72;;;2.83;;
75379;SDS011;65641;44.714;37.756;2022-12-07T06:56:09;5.30;;;2.60;;
75379;SDS011;65641;44.714;37.756;2022-12-07T06:57:12;3.55;;;2.78;;
75379;SDS011;65641;44.714;37.756;2022-12-07T06:58:15;4.53;;;3.00;;
75379;SDS011;65641;44.714;37.756;2022-12-07T06:59:20;6.43;;;3.03;;
75379;SDS011;65641;44.714;37.756;2022-12-07T07:00:23;3.90;;;2.88;;
75379;SDS011;65641;44.714;37.756;2022-12-07T07:01:26;4.30;;;2.40;;
75379;SDS011;65641;44.714;37.756;2022-12-07T07:02:29;5.10;;;2.67;;
75379;SDS011;65641;44.714;37.756;2022-12-07T07:03:32;6.35;;;2.72;;
75379;SDS011;65641;44.714;37.756;2022-12-07T07:04:35;5.82;;;3.25;;